sensor_id;sensor_type;location;lat;lon;timestamp;temperature;humidity
28010;DHT22;15334;49.494;8.410;2023-03-01T00:00:05;1.90;99.90
28010;DHT22;15334;49.494;8.410;2023-03-01T00:02:34;1.80;99.90
28010;DHT22;15334;49.494;8.410;2023-03-01T00:05:04;1.80;99.90
28010;DHT22;15334;49.494;8.410;2023-03-01T00:07:34;1.70;99.90
28010;DHT22;15334;49.494;8.410;2023-03-01T00:10:02;1.70;99.90
28010;DHT22;15334;49.494;8.410;2023-03-01T00:12:31;1.70;99.90
28010;DHT22;15334;49.494;8.410;2023-03-01T00:15:00;1.70;99.90
28010;DHT22;15334;49.494;8.410;2023-03-01T00:17:28;1.80;99.90
28010;DHT22;15334;49.494;8.410;2023-03-01T00:19:56;1.80;99.90
28010;DHT22;15334;49.494;8.410;2023-03-01T00:22:26;1.80;99.90
28010;DHT22;15334;49.494;8.410;2023-03-01T00:24:54;1.60;99.90
28010;DHT22;15334;49.494;8.410;2023-03-01T00:27:22;1.30;99.90
28010;DHT22;15334;49.494;8.410;2023-03-01T00:29:50;1.10;99.90
28010;DHT22;15334;49.494;8.410;2023-03-01T00:32:21;0.90;99.90
28010;DHT22;15334;49.494;8.410;2023-03-01T00:34:49;0.80;99.90
28010;DHT22;15334;49.494;8.410;2023-03-01T00:37:22;0.60;99.90
28010;DHT22;15334;49.494;8.410;2023-03-01T00:39:50;0.40;99.90
28010;DHT22;15334;49.494;8.410;2023-03-01T00:42:18;0.30;99.90
28010;DHT22;15334;49.494;8.410;2023-03-01T00:44:48;0.30;99.90
28010;DHT22;15334;49.494;8.410;2023-03-01T00:47:16;0.20;99.90
28010;DHT22;15334;49.494;8.410;2023-03-01T00:49:45;0.10;99.90
28010;DHT22;15334;49.494;8.410;2023-03-01T00:52:13;0.00;99.90
28010;DHT22;15334;49.494;8.410;2023-03-01T00:54:41;0.00;99.90
28010;DHT22;15334;49.494;8.410;2023-03-01T00:57:09;0.10;99.90
28010;DHT22;15334;49.494;8.410;2023-03-01T00:59:37;0.10;99.90
28010;DHT22;15334;49.494;8.410;2023-03-01T01:02:05;0.20;99.90
28010;DHT22;15334;49.494;8.410;2023-03-01T01:04:33;0.20;99.90
28010;DHT22;15334;49.494;8.410;2023-03-01T01:07:02;0.30;99.90
28010;DHT22;15334;49.494;8.410;2023-03-01T01:09:32;0.30;99.90
28010;DHT22;15334;49.494;8.410;2023-03-01T01:12:00;0.20;99.90
28010;DHT22;15334;49.494;8.410;2023-03-01T01:14:28;0.20;99.90
28010;DHT22;15334;49.494;8.410;2023-03-01T01:16:56;0.30;99.90
28010;DHT22;15334;49.494;8.410;2023-03-01T01:19:25;0.30;99.90
28010;DHT22;15334;49.494;8.410;2023-03-01T01:21:53;0.30;99.90
28010;DHT22;15334;49.494;8.410;2023-03-01T01:24:23;0.40;99.90
28010;DHT22;15334;49.494;8.410;2023-03-01T01:26:51;0.40;99.90
28010;DHT22;15334;49.494;8.410;2023-03-01T01:29:18;0.40;99.90
28010;DHT22;15334;49.494;8.410;2023-03-01T01:31:46;0.40;99.90
28010;DHT22;15334;49.494;8.410;2023-03-01T01:34:16;0.30;99.90
28010;DHT22;15334;49.494;8.410;2023-03-01T01:36:48;0.40;99.90
28010;DHT22;15334;49.494;8.410;2023-03-01T01:39:16;0.30;99.90
28010;DHT22;15334;49.494;8.410;2023-03-01T01:41:46;0.30;99.90
28010;DHT22;15334;49.494;8.410;2023-03-01T01:44:17;0.40;99.90
28010;DHT22;15334;49.494;8.410;2023-03-01T01:46:49;0.50;99.90
28010;DHT22;15334;49.494;8.410;2023-03-01T01:49:24;0.50;99.90
28010;DHT22;15334;49.494;8.410;2023-03-01T01:52:01;0.40;99.90
28010;DHT22;15334;49.494;8.410;2023-03-01T01:54:36;0.40;99.90
28010;DHT22;15334;49.494;8.410;2023-03-01T01:57:10;0.20;99.90
28010;DHT22;15334;49.494;8.410;2023-03-01T01:59:49;0.10;99.90
28010;DHT22;15334;49.494;8.410;2023-03-01T02:02:18;0.00;99.90
28010;DHT22;15334;49.494;8.410;2023-03-01T02:04:48;0.00;99.90
28010;DHT22;15334;49.494;8.410;2023-03-01T02:07:20;0.00;99.90
28010;DHT22;15334;49.494;8.410;2023-03-01T02:09:50;-0.10;99.90
28010;DHT22;15334;49.494;8.410;2023-03-01T02:12:23;-0.20;99.90
28010;DHT22;15334;49.494;8.410;2023-03-01T02:14:54;-0.20;99.90
28010;DHT22;15334;49.494;8.410;2023-03-01T02:17:23;-0.30;99.90
28010;DHT22;15334;49.494;8.410;2023-03-01T02:20:02;-0.30;99.90
28010;DHT22;15334;49.494;8.410;2023-03-01T02:22:35;-0.30;99.90
28010;DHT22;15334;49.494;8.410;2023-03-01T02:25:18;-0.20;99.90
28010;DHT22;15334;49.494;8.410;2023-03-01T02:27:51;-0.10;99.90
28010;DHT22;15334;49.494;8.410;2023-03-01T02:30:22;-0.10;99.90
28010;DHT22;15334;49.494;8.410;2023-03-01T02:32:53;0.00;99.90
28010;DHT22;15334;49.494;8.410;2023-03-01T02:35:21;0.10;99.90
28010;DHT22;15334;49.494;8.410;2023-03-01T02:37:50;0.20;99.90
28010;DHT22;15334;49.494;8.410;2023-03-01T02:40:19;0.30;99.90
28010;DHT22;15334;49.494;8.410;2023-03-01T02:42:51;0.40;99.90
28010;DHT22;15334;49.494;8.410;2023-03-01T02:45:23;0.40;99.90
28010;DHT22;15334;49.494;8.410;2023-03-01T02:47:53;0.40;99.90
28010;DHT22;15334;49.494;8.410;2023-03-01T02:50:43;0.40;99.90
28010;DHT22;15334;49.494;8.410;2023-03-01T02:53:16;0.20;99.90
28010;DHT22;15334;49.494;8.410;2023-03-01T02:55:49;0.10;99.90
28010;DHT22;15334;49.494;8.410;2023-03-01T02:58:17;0.00;99.90
28010;DHT22;15334;49.494;8.410;2023-03-01T03:00:47;0.00;99.90
28010;DHT22;15334;49.494;8.410;2023-03-01T03:03:17;0.00;99.90
28010;DHT22;15334;49.494;8.410;2023-03-01T03:05:46;0.00;99.90
28010;DHT22;15334;49.494;8.410;2023-03-01T03:08:15;-0.10;99.90
28010;DHT22;15334;49.494;8.410;2023-03-01T03:10:51;-0.10;99.90
28010;DHT22;15334;49.494;8.410;2023-03-01T03:13:19;-0.10;99.90
28010;DHT22;15334;49.494;8.410;2023-03-01T03:15:50;0.00;99.90
28010;DHT22;15334;49.494;8.410;2023-03-01T03:18:18;0.00;99.90
28010;DHT22;15334;49.494;8.410;2023-03-01T03:20:46;0.00;99.90
28010;DHT22;15334;49.494;8.410;2023-03-01T03:23:19;0.00;99.90
28010;DHT22;15334;49.494;8.410;2023-03-01T03:25:48;-0.10;99.90
28010;DHT22;15334;49.494;8.410;2023-03-01T03:28:16;0.00;99.90
28010;DHT22;15334;49.494;8.410;2023-03-01T03:30:44;0.00;99.90
28010;DHT22;15334;49.494;8.410;2023-03-01T03:33:14;0.00;99.90
28010;DHT22;15334;49.494;8.410;2023-03-01T03:35:44;0.10;99.90
28010;DHT22;15334;49.494;8.410;2023-03-01T03:38:14;0.10;99.90
28010;DHT22;15334;49.494;8.410;2023-03-01T03:40:45;0.20;99.90
28010;DHT22;15334;49.494;8.410;2023-03-01T03:43:16;0.20;99.90
28010;DHT22;15334;49.494;8.410;2023-03-01T03:45:45;0.30;99.90
28010;DHT22;15334;49.494;8.410;2023-03-01T03:48:15;0.40;99.90
28010;DHT22;15334;49.494;8.410;2023-03-01T03:50:50;0.50;99.90
28010;DHT22;15334;49.494;8.410;2023-03-01T03:53:20;0.60;99.90
28010;DHT22;15334;49.494;8.410;2023-03-01T03:55:53;0.60;99.90
28010;DHT22;15334;49.494;8.410;2023-03-01T03:58:23;0.60;99.90
28010;DHT22;15334;49.494;8.410;2023-03-01T04:00:57;0.60;99.90
28010;DHT22;15334;49.494;8.410;2023-03-01T04:03:33;0.60;99.90
28010;DHT22;15334;49.494;8.410;2023-03-01T04:06:09;0.60;99.90
28010;DHT22;15334;49.494;8.410;2023-03-01T04:08:45;0.60;99.90
28010;DHT22;15334;49.494;8.410;2023-03-01T04:11:23;0.60;99.90
28010;DHT22;15334;49.494;8.410;2023-03-01T04:13:57;0.60;99.90
28010;DHT22;15334;49.494;8.410;2023-03-01T04:16:30;0.70;99.90
28010;DHT22;15334;49.494;8.410;2023-03-01T04:19:01;0.70;99.90
28010;DHT22;15334;49.494;8.410;2023-03-01T04:21:31;0.70;99.90
28010;DHT22;15334;49.494;8.410;2023-03-01T04:23:59;0.80;99.90
28010;DHT22;15334;49.494;8.410;2023-03-01T04:26:30;0.80;99.90
28010;DHT22;15334;49.494;8.410;2023-03-01T04:28:58;0.70;99.90
28010;DHT22;15334;49.494;8.410;2023-03-01T04:31:26;0.70;99.90
28010;DHT22;15334;49.494;8.410;2023-03-01T04:33:55;0.70;99.90
28010;DHT22;15334;49.494;8.410;2023-03-01T04:36:26;0.70;99.90
28010;DHT22;15334;49.494;8.410;2023-03-01T04:38:56;0.60;99.90
28010;DHT22;15334;49.494;8.410;2023-03-01T04:41:24;0.60;99.90
28010;DHT22;15334;49.494;8.410;2023-03-01T04:43:53;0.60;99.90
28010;DHT22;15334;49.494;8.410;2023-03-01T04:46:21;0.60;99.90
28010;DHT22;15334;49.494;8.410;2023-03-01T04:48:49;0.60;99.90
28010;DHT22;15334;49.494;8.410;2023-03-01T04:51:17;0.70;99.90
28010;DHT22;15334;49.494;8.410;2023-03-01T04:53:47;0.70;99.90
28010;DHT22;15334;49.494;8.410;2023-03-01T04:56:15;0.70;99.90
28010;DHT22;15334;49.494;8.410;2023-03-01T04:58:45;0.70;99.90
28010;DHT22;15334;49.494;8.410;2023-03-01T05:01:15;0.80;99.90
28010;DHT22;15334;49.494;8.410;2023-03-01T05:03:44;0.80;99.90
28010;DHT22;15334;49.494;8.410;2023-03-01T05:06:15;0.80;99.90
28010;DHT22;15334;49.494;8.410;2023-03-01T05:08:49;0.80;99.90
28010;DHT22;15334;49.494;8.410;2023-03-01T05:11:24;0.80;99.90
28010;DHT22;15334;49.494;8.410;2023-03-01T05:13:57;0.80;99.90
28010;DHT22;15334;49.494;8.410;2023-03-01T05:16:28;0.80;99.90
28010;DHT22;15334;49.494;8.410;2023-03-01T05:19:02;0.80;99.90
28010;DHT22;15334;49.494;8.410;2023-03-01T05:21:38;0.80;99.90
28010;DHT22;15334;49.494;8.410;2023-03-01T05:24:30;0.80;99.90
28010;DHT22;15334;49.494;8.410;2023-03-01T05:27:16;0.80;99.90
28010;DHT22;15334;49.494;8.410;2023-03-01T05:29:50;0.80;99.90
28010;DHT22;15334;49.494;8.410;2023-03-01T05:32:19;0.90;99.90
28010;DHT22;15334;49.494;8.410;2023-03-01T05:34:50;0.90;99.90
28010;DHT22;15334;49.494;8.410;2023-03-01T05:37:25;0.90;99.90
28010;DHT22;15334;49.494;8.410;2023-03-01T05:39:58;1.00;99.90
28010;DHT22;15334;49.494;8.410;2023-03-01T05:42:28;1.00;99.90
28010;DHT22;15334;49.494;8.410;2023-03-01T05:45:02;1.10;99.90
28010;DHT22;15334;49.494;8.410;2023-03-01T05:47:32;1.10;99.90
28010;DHT22;15334;49.494;8.410;2023-03-01T05:50:05;1.10;99.90
28010;DHT22;15334;49.494;8.410;2023-03-01T05:52:50;1.10;99.90
28010;DHT22;15334;49.494;8.410;2023-03-01T05:55:24;1.10;99.90
28010;DHT22;15334;49.494;8.410;2023-03-01T05:57:55;1.10;99.90
28010;DHT22;15334;49.494;8.410;2023-03-01T06:00:26;1.10;99.90
28010;DHT22;15334;49.494;8.410;2023-03-01T06:02:57;1.10;99.90
28010;DHT22;15334;49.494;8.410;2023-03-01T06:05:27;1.20;99.90
28010;DHT22;15334;49.494;8.410;2023-03-01T06:07:58;1.20;99.90
28010;DHT22;15334;49.494;8.410;2023-03-01T06:10:28;1.30;99.90
28010;DHT22;15334;49.494;8.410;2023-03-01T06:12:56;1.30;99.90
28010;DHT22;15334;49.494;8.410;2023-03-01T06:15:25;1.40;99.90
28010;DHT22;15334;49.494;8.410;2023-03-01T06:17:54;1.40;99.90
28010;DHT22;15334;49.494;8.410;2023-03-01T06:20:27;1.50;99.90
28010;DHT22;15334;49.494;8.410;2023-03-01T06:22:56;1.50;99.90
28010;DHT22;15334;49.494;8.410;2023-03-01T06:25:29;1.50;99.90
28010;DHT22;15334;49.494;8.410;2023-03-01T06:27:57;1.50;99.90
28010;DHT22;15334;49.494;8.410;2023-03-01T06:30:26;1.50;99.90
28010;DHT22;15334;49.494;8.410;2023-03-01T06:32:56;1.50;99.90
28010;DHT22;15334;49.494;8.410;2023-03-01T06:35:28;1.50;99.90
28010;DHT22;15334;49.494;8.410;2023-03-01T06:38:00;1.40;99.90
28010;DHT22;15334;49.494;8.410;2023-03-01T06:40:31;1.50;99.90
28010;DHT22;15334;49.494;8.410;2023-03-01T06:42:59;1.50;99.90
28010;DHT22;15334;49.494;8.410;2023-03-01T06:45:27;1.50;99.90
28010;DHT22;15334;49.494;8.410;2023-03-01T06:48:02;1.50;99.90
28010;DHT22;15334;49.494;8.410;2023-03-01T06:50:31;1.40;99.90
28010;DHT22;15334;49.494;8.410;2023-03-01T06:52:59;1.40;99.90
28010;DHT22;15334;49.494;8.410;2023-03-01T06:55:27;1.40;99.90
28010;DHT22;15334;49.494;8.410;2023-03-01T06:57:57;1.50;99.90
28010;DHT22;15334;49.494;8.410;2023-03-01T07:00:27;1.50;99.90
28010;DHT22;15334;49.494;8.410;2023-03-01T07:02:58;1.50;99.90
28010;DHT22;15334;49.494;8.410;2023-03-01T07:05:26;1.50;99.90
28010;DHT22;15334;49.494;8.410;2023-03-01T07:07:54;1.60;99.90
28010;DHT22;15334;49.494;8.410;2023-03-01T07:10:23;1.60;99.90
28010;DHT22;15334;49.494;8.410;2023-03-01T07:12:54;1.70;99.90
28010;DHT22;15334;49.494;8.410;2023-03-01T07:15:26;1.70;99.90
28010;DHT22;15334;49.494;8.410;2023-03-01T07:17:56;1.70;99.90
28010;DHT22;15334;49.494;8.410;2023-03-01T07:20:26;1.80;99.90
28010;DHT22;15334;49.494;8.410;2023-03-01T07:22:55;1.80;99.90
28010;DHT22;15334;49.494;8.410;2023-03-01T07:25:25;1.70;99.90
28010;DHT22;15334;49.494;8.410;2023-03-01T07:27:53;1.70;99.90
28010;DHT22;15334;49.494;8.410;2023-03-01T07:30:22;1.70;99.90
28010;DHT22;15334;49.494;8.410;2023-03-01T07:32:53;1.70;99.90
28010;DHT22;15334;49.494;8.410;2023-03-01T07:35:22;1.70;99.90
28010;DHT22;15334;49.494;8.410;2023-03-01T07:37:51;1.70;99.90
28010;DHT22;15334;49.494;8.410;2023-03-01T07:40:19;1.70;99.90
28010;DHT22;15334;49.494;8.410;2023-03-01T07:42:47;1.80;99.90
28010;DHT22;15334;49.494;8.410;2023-03-01T07:45:15;1.80;99.90
28010;DHT22;15334;49.494;8.410;2023-03-01T07:47:46;1.80;99.90
28010;DHT22;15334;49.494;8.410;2023-03-01T07:50:16;1.90;99.90
28010;DHT22;15334;49.494;8.410;2023-03-01T07:52:45;2.00;99.90
28010;DHT22;15334;49.494;8.410;2023-03-01T07:55:13;2.00;99.90
28010;DHT22;15334;49.494;8.410;2023-03-01T07:57:41;2.10;99.90
28010;DHT22;15334;49.494;8.410;2023-03-01T08:00:11;2.10;99.90
28010;DHT22;15334;49.494;8.410;2023-03-01T08:02:39;2.10;99.90
28010;DHT22;15334;49.494;8.410;2023-03-01T08:05:09;2.10;99.90
28010;DHT22;15334;49.494;8.410;2023-03-01T08:07:38;2.20;99.90
28010;DHT22;15334;49.494;8.410;2023-03-01T08:10:07;2.30;99.90
28010;DHT22;15334;49.494;8.410;2023-03-01T08:12:35;2.40;99.90
28010;DHT22;15334;49.494;8.410;2023-03-01T08:15:04;2.50;99.90
28010;DHT22;15334;49.494;8.410;2023-03-01T08:17:32;2.40;99.90
28010;DHT22;15334;49.494;8.410;2023-03-01T08:20:00;2.50;99.90
28010;DHT22;15334;49.494;8.410;2023-03-01T08:22:29;2.60;99.90
28010;DHT22;15334;49.494;8.410;2023-03-01T08:25:00;2.60;99.90
28010;DHT22;15334;49.494;8.410;2023-03-01T08:27:34;2.50;99.90
28010;DHT22;15334;49.494;8.410;2023-03-01T08:30:03;2.50;99.90
28010;DHT22;15334;49.494;8.410;2023-03-01T08:32:36;2.50;99.90
28010;DHT22;15334;49.494;8.410;2023-03-01T08:35:05;2.60;99.90
28010;DHT22;15334;49.494;8.410;2023-03-01T08:37:33;2.60;99.90
28010;DHT22;15334;49.494;8.410;2023-03-01T08:40:03;2.70;99.90
28010;DHT22;15334;49.494;8.410;2023-03-01T08:42:34;2.70;99.90
28010;DHT22;15334;49.494;8.410;2023-03-01T08:45:04;2.90;99.90
28010;DHT22;15334;49.494;8.410;2023-03-01T08:47:32;2.90;99.90
28010;DHT22;15334;49.494;8.410;2023-03-01T08:50:01;2.90;99.90
28010;DHT22;15334;49.494;8.410;2023-03-01T08:52:32;2.90;99.90
28010;DHT22;15334;49.494;8.410;2023-03-01T08:55:07;3.00;99.90
28010;DHT22;15334;49.494;8.410;2023-03-01T08:57:35;2.90;99.90
28010;DHT22;15334;49.494;8.410;2023-03-01T09:00:04;2.80;99.90
28010;DHT22;15334;49.494;8.410;2023-03-01T09:02:35;3.00;99.90
28010;DHT22;15334;49.494;8.410;2023-03-01T09:05:06;3.10;99.90
28010;DHT22;15334;49.494;8.410;2023-03-01T09:07:35;3.10;99.90
28010;DHT22;15334;49.494;8.410;2023-03-01T09:10:03;3.10;99.90
28010;DHT22;15334;49.494;8.410;2023-03-01T09:12:34;3.20;99.90
28010;DHT22;15334;49.494;8.410;2023-03-01T09:15:03;3.30;99.90
28010;DHT22;15334;49.494;8.410;2023-03-01T09:17:31;3.40;99.90
28010;DHT22;15334;49.494;8.410;2023-03-01T09:19:59;3.50;99.90
28010;DHT22;15334;49.494;8.410;2023-03-01T09:22:33;3.50;99.90
28010;DHT22;15334;49.494;8.410;2023-03-01T09:25:01;3.50;99.90
28010;DHT22;15334;49.494;8.410;2023-03-01T09:27:29;3.50;99.90
28010;DHT22;15334;49.494;8.410;2023-03-01T09:30:01;3.60;99.90
28010;DHT22;15334;49.494;8.410;2023-03-01T09:32:30;3.70;99.90
28010;DHT22;15334;49.494;8.410;2023-03-01T09:34:58;3.80;99.90
28010;DHT22;15334;49.494;8.410;2023-03-01T09:37:32;3.80;99.90
28010;DHT22;15334;49.494;8.410;2023-03-01T09:40:02;3.80;99.90
28010;DHT22;15334;49.494;8.410;2023-03-01T09:42:32;3.80;99.90
28010;DHT22;15334;49.494;8.410;2023-03-01T09:45:06;3.90;99.90
28010;DHT22;15334;49.494;8.410;2023-03-01T09:47:40;4.10;99.90
28010;DHT22;15334;49.494;8.410;2023-03-01T09:50:12;4.30;99.90
28010;DHT22;15334;49.494;8.410;2023-03-01T09:52:41;4.40;99.90
28010;DHT22;15334;49.494;8.410;2023-03-01T09:55:12;4.50;99.90
28010;DHT22;15334;49.494;8.410;2023-03-01T09:57:45;4.60;99.90
28010;DHT22;15334;49.494;8.410;2023-03-01T10:00:29;4.60;99.90
28010;DHT22;15334;49.494;8.410;2023-03-01T10:03:07;4.70;99.90
28010;DHT22;15334;49.494;8.410;2023-03-01T10:05:52;4.80;99.90
28010;DHT22;15334;49.494;8.410;2023-03-01T10:08:30;4.90;99.90
28010;DHT22;15334;49.494;8.410;2023-03-01T10:11:03;5.00;99.90
28010;DHT22;15334;49.494;8.410;2023-03-01T10:13:37;5.00;99.90
28010;DHT22;15334;49.494;8.410;2023-03-01T10:16:14;5.10;99.90
28010;DHT22;15334;49.494;8.410;2023-03-01T10:18:53;5.30;99.90
28010;DHT22;15334;49.494;8.410;2023-03-01T10:21:23;5.40;99.90
28010;DHT22;15334;49.494;8.410;2023-03-01T10:24:10;5.20;99.90
28010;DHT22;15334;49.494;8.410;2023-03-01T10:26:49;5.30;99.90
28010;DHT22;15334;49.494;8.410;2023-03-01T10:29:23;5.40;99.90
28010;DHT22;15334;49.494;8.410;2023-03-01T10:31:56;5.50;99.90
28010;DHT22;15334;49.494;8.410;2023-03-01T10:34:29;5.40;99.90
28010;DHT22;15334;49.494;8.410;2023-03-01T10:36:58;5.60;99.90
28010;DHT22;15334;49.494;8.410;2023-03-01T10:39:29;5.50;99.90
28010;DHT22;15334;49.494;8.410;2023-03-01T10:42:00;5.60;99.90
28010;DHT22;15334;49.494;8.410;2023-03-01T10:44:37;5.70;99.90
28010;DHT22;15334;49.494;8.410;2023-03-01T10:47:17;5.70;99.90
28010;DHT22;15334;49.494;8.410;2023-03-01T10:50:17;5.80;99.90
28010;DHT22;15334;49.494;8.410;2023-03-01T10:52:57;6.10;99.60
28010;DHT22;15334;49.494;8.410;2023-03-01T10:55:31;6.20;99.50
28010;DHT22;15334;49.494;8.410;2023-03-01T10:58:16;6.40;99.00
28010;DHT22;15334;49.494;8.410;2023-03-01T11:00:48;6.70;99.20
28010;DHT22;15334;49.494;8.410;2023-03-01T11:03:21;6.80;98.20
28010;DHT22;15334;49.494;8.410;2023-03-01T11:06:02;6.90;98.00
28010;DHT22;15334;49.494;8.410;2023-03-01T11:08:33;7.20;97.40
28010;DHT22;15334;49.494;8.410;2023-03-01T11:11:13;7.60;96.90
28010;DHT22;15334;49.494;8.410;2023-03-01T11:13:51;8.30;96.20
28010;DHT22;15334;49.494;8.410;2023-03-01T11:16:25;10.00;93.10
28010;DHT22;15334;49.494;8.410;2023-03-01T11:19:00;11.70;90.10
28010;DHT22;15334;49.494;8.410;2023-03-01T11:21:31;13.50;82.90
28010;DHT22;15334;49.494;8.410;2023-03-01T11:24:01;14.60;75.90
28010;DHT22;15334;49.494;8.410;2023-03-01T11:26:36;16.00;71.90
28010;DHT22;15334;49.494;8.410;2023-03-01T11:29:17;17.60;64.40
28010;DHT22;15334;49.494;8.410;2023-03-01T11:31:46;18.30;60.00
28010;DHT22;15334;49.494;8.410;2023-03-01T11:34:36;17.70;59.70
28010;DHT22;15334;49.494;8.410;2023-03-01T11:37:21;17.20;59.30
28010;DHT22;15334;49.494;8.410;2023-03-01T11:39:57;15.80;61.20
28010;DHT22;15334;49.494;8.410;2023-03-01T11:42:41;14.70;64.40
28010;DHT22;15334;49.494;8.410;2023-03-01T11:45:12;14.60;64.60
28010;DHT22;15334;49.494;8.410;2023-03-01T11:47:51;15.50;63.50
28010;DHT22;15334;49.494;8.410;2023-03-01T11:50:30;16.00;61.70
28010;DHT22;15334;49.494;8.410;2023-03-01T11:53:22;16.20;59.90
28010;DHT22;15334;49.494;8.410;2023-03-01T11:56:02;15.40;61.60
28010;DHT22;15334;49.494;8.410;2023-03-01T11:58:52;15.10;62.70
28010;DHT22;15334;49.494;8.410;2023-03-01T12:01:32;14.90;63.50
28010;DHT22;15334;49.494;8.410;2023-03-01T12:04:46;15.20;62.50
28010;DHT22;15334;49.494;8.410;2023-03-01T12:07:29;15.30;62.00
28010;DHT22;15334;49.494;8.410;2023-03-01T12:10:23;15.50;62.60
28010;DHT22;15334;49.494;8.410;2023-03-01T12:13:18;15.50;61.50
28010;DHT22;15334;49.494;8.410;2023-03-01T12:21:46;15.40;61.30
28010;DHT22;15334;49.494;8.410;2023-03-01T12:27:37;15.60;60.80
28010;DHT22;15334;49.494;8.410;2023-03-01T12:30:24;15.50;61.40
28010;DHT22;15334;49.494;8.410;2023-03-01T12:33:02;15.80;60.40
28010;DHT22;15334;49.494;8.410;2023-03-01T12:35:54;15.40;61.10
28010;DHT22;15334;49.494;8.410;2023-03-01T12:38:33;15.40;61.10
28010;DHT22;15334;49.494;8.410;2023-03-01T12:41:23;15.50;61.00
28010;DHT22;15334;49.494;8.410;2023-03-01T12:44:04;15.60;61.00
28010;DHT22;15334;49.494;8.410;2023-03-01T12:46:52;16.30;60.50
28010;DHT22;15334;49.494;8.410;2023-03-01T12:49:28;17.50;58.60
28010;DHT22;15334;49.494;8.410;2023-03-01T12:52:07;17.40;57.60
28010;DHT22;15334;49.494;8.410;2023-03-01T12:54:42;17.30;57.90
28010;DHT22;15334;49.494;8.410;2023-03-01T12:57:17;18.00;57.00
28010;DHT22;15334;49.494;8.410;2023-03-01T13:00:02;18.90;56.00
28010;DHT22;15334;49.494;8.410;2023-03-01T13:02:41;19.60;54.70
28010;DHT22;15334;49.494;8.410;2023-03-01T13:05:30;17.30;56.30
28010;DHT22;15334;49.494;8.410;2023-03-01T13:08:15;15.10;60.50
28010;DHT22;15334;49.494;8.410;2023-03-01T13:10:51;13.10;65.20
28010;DHT22;15334;49.494;8.410;2023-03-01T13:13:24;12.40;67.20
28010;DHT22;15334;49.494;8.410;2023-03-01T13:15:54;11.40;69.10
28010;DHT22;15334;49.494;8.410;2023-03-01T13:18:31;10.70;71.50
28010;DHT22;15334;49.494;8.410;2023-03-01T13:21:01;10.30;73.10
28010;DHT22;15334;49.494;8.410;2023-03-01T13:23:33;9.90;74.60
28010;DHT22;15334;49.494;8.410;2023-03-01T13:26:12;9.60;74.80
28010;DHT22;15334;49.494;8.410;2023-03-01T13:28:54;9.40;75.70
28010;DHT22;15334;49.494;8.410;2023-03-01T13:34:39;9.50;76.40
28010;DHT22;15334;49.494;8.410;2023-03-01T13:37:09;9.20;76.00
28010;DHT22;15334;49.494;8.410;2023-03-01T13:39:40;9.10;76.70
28010;DHT22;15334;49.494;8.410;2023-03-01T13:42:42;9.20;76.90
28010;DHT22;15334;49.494;8.410;2023-03-01T13:45:35;9.30;76.90
28010;DHT22;15334;49.494;8.410;2023-03-01T13:48:17;9.30;77.20
28010;DHT22;15334;49.494;8.410;2023-03-01T13:50:54;9.20;77.10
28010;DHT22;15334;49.494;8.410;2023-03-01T13:53:24;9.10;77.10
28010;DHT22;15334;49.494;8.410;2023-03-01T13:55:57;9.00;78.10
28010;DHT22;15334;49.494;8.410;2023-03-01T13:58:28;8.90;77.50
28010;DHT22;15334;49.494;8.410;2023-03-01T14:01:04;8.90;78.10
28010;DHT22;15334;49.494;8.410;2023-03-01T14:03:40;9.00;78.50
28010;DHT22;15334;49.494;8.410;2023-03-01T14:06:14;9.20;78.50
28010;DHT22;15334;49.494;8.410;2023-03-01T14:08:50;9.10;77.40
28010;DHT22;15334;49.494;8.410;2023-03-01T14:11:29;9.00;78.50
28010;DHT22;15334;49.494;8.410;2023-03-01T14:14:18;9.00;78.50
28010;DHT22;15334;49.494;8.410;2023-03-01T14:16:58;8.90;78.30
28010;DHT22;15334;49.494;8.410;2023-03-01T14:19:30;8.90;78.50
28010;DHT22;15334;49.494;8.410;2023-03-01T14:22:15;8.90;78.60
28010;DHT22;15334;49.494;8.410;2023-03-01T14:24:49;8.90;78.70
28010;DHT22;15334;49.494;8.410;2023-03-01T14:27:18;8.90;78.70
28010;DHT22;15334;49.494;8.410;2023-03-01T14:29:55;9.00;79.00
28010;DHT22;15334;49.494;8.410;2023-03-01T14:32:26;9.00;79.30
28010;DHT22;15334;49.494;8.410;2023-03-01T14:34:59;9.10;78.90
28010;DHT22;15334;49.494;8.410;2023-03-01T14:37:30;9.10;78.80
28010;DHT22;15334;49.494;8.410;2023-03-01T14:40:01;9.10;78.90
28010;DHT22;15334;49.494;8.410;2023-03-01T14:42:35;9.20;78.80
28010;DHT22;15334;49.494;8.410;2023-03-01T14:45:15;9.20;78.60
28010;DHT22;15334;49.494;8.410;2023-03-01T14:47:52;9.20;78.70
28010;DHT22;15334;49.494;8.410;2023-03-01T14:50:29;9.20;79.20
28010;DHT22;15334;49.494;8.410;2023-03-01T14:53:14;9.30;78.70
28010;DHT22;15334;49.494;8.410;2023-03-01T14:55:50;9.40;77.80
28010;DHT22;15334;49.494;8.410;2023-03-01T14:58:32;9.30;78.00
28010;DHT22;15334;49.494;8.410;2023-03-01T15:01:17;9.30;77.20
28010;DHT22;15334;49.494;8.410;2023-03-01T15:04:05;9.10;78.10
28010;DHT22;15334;49.494;8.410;2023-03-01T15:06:40;9.10;78.90
28010;DHT22;15334;49.494;8.410;2023-03-01T15:09:14;9.10;78.70
28010;DHT22;15334;49.494;8.410;2023-03-01T15:11:49;9.10;78.60
28010;DHT22;15334;49.494;8.410;2023-03-01T15:14:29;9.20;78.00
28010;DHT22;15334;49.494;8.410;2023-03-01T15:17:02;9.20;78.00
28010;DHT22;15334;49.494;8.410;2023-03-01T15:19:34;9.10;77.70
28010;DHT22;15334;49.494;8.410;2023-03-01T15:22:03;9.10;77.90
28010;DHT22;15334;49.494;8.410;2023-03-01T15:24:38;9.20;77.90
28010;DHT22;15334;49.494;8.410;2023-03-01T15:27:14;9.20;78.50
28010;DHT22;15334;49.494;8.410;2023-03-01T15:29:53;9.20;77.70
28010;DHT22;15334;49.494;8.410;2023-03-01T15:32:27;9.20;78.00
28010;DHT22;15334;49.494;8.410;2023-03-01T15:35:01;9.20;78.10
28010;DHT22;15334;49.494;8.410;2023-03-01T15:37:53;9.20;78.30
28010;DHT22;15334;49.494;8.410;2023-03-01T15:40:23;9.20;78.70
28010;DHT22;15334;49.494;8.410;2023-03-01T15:42:58;9.20;78.70
28010;DHT22;15334;49.494;8.410;2023-03-01T15:45:28;9.30;78.80
28010;DHT22;15334;49.494;8.410;2023-03-01T15:47:58;9.30;78.90
28010;DHT22;15334;49.494;8.410;2023-03-01T15:50:32;9.30;78.50
28010;DHT22;15334;49.494;8.410;2023-03-01T15:53:07;9.40;78.60
28010;DHT22;15334;49.494;8.410;2023-03-01T15:55:37;9.40;79.00
28010;DHT22;15334;49.494;8.410;2023-03-01T15:58:12;9.40;78.10
28010;DHT22;15334;49.494;8.410;2023-03-01T16:00:43;9.30;78.50
28010;DHT22;15334;49.494;8.410;2023-03-01T16:03:28;9.30;79.10
28010;DHT22;15334;49.494;8.410;2023-03-01T16:05:58;9.20;78.40
28010;DHT22;15334;49.494;8.410;2023-03-01T16:08:27;9.20;78.80
28010;DHT22;15334;49.494;8.410;2023-03-01T16:10:56;9.10;78.80
28010;DHT22;15334;49.494;8.410;2023-03-01T16:13:26;9.10;78.40
28010;DHT22;15334;49.494;8.410;2023-03-01T16:15:55;9.00;79.00
28010;DHT22;15334;49.494;8.410;2023-03-01T16:18:36;9.10;79.00
28010;DHT22;15334;49.494;8.410;2023-03-01T16:21:19;9.10;78.90
28010;DHT22;15334;49.494;8.410;2023-03-01T16:23:52;9.10;78.90
28010;DHT22;15334;49.494;8.410;2023-03-01T16:26:35;9.00;78.70
28010;DHT22;15334;49.494;8.410;2023-03-01T16:29:06;8.90;79.00
28010;DHT22;15334;49.494;8.410;2023-03-01T16:31:35;8.90;79.40
28010;DHT22;15334;49.494;8.410;2023-03-01T16:34:05;8.80;79.50